createdAt,value
2023-03-26T00:01:49.759Z,45.83
2023-03-26T00:04:19.929Z,42.23
2023-03-26T00:06:49.256Z,45.30
2023-03-26T00:09:18.886Z,49.97
2023-03-26T00:11:47.738Z,44.60
2023-03-26T00:14:17.924Z,39.47
2023-03-26T00:16:49.386Z,44.93
2023-03-26T00:19:17.913Z,47.33
2023-03-26T00:21:48.457Z,49.43
2023-03-26T00:24:17.525Z,58.73
2023-03-26T00:26:53.149Z,44.67
2023-03-26T00:29:22.997Z,43.90
2023-03-26T00:31:53.145Z,48.57
2023-03-26T00:34:23.010Z,46.73
2023-03-26T00:36:54.568Z,45.17
2023-03-26T00:39:24.106Z,49.10
2023-03-26T00:41:54.715Z,52.50
2023-03-26T00:44:23.672Z,36.90
2023-03-26T00:46:53.773Z,44.27
2023-03-26T00:49:23.021Z,58.43
2023-03-26T00:51:51.457Z,58.47
2023-03-26T00:54:20.844Z,47.60
2023-03-26T00:56:49.233Z,38.63
2023-03-26T00:59:17.905Z,45.50
2023-03-26T01:01:47.086Z,45.90
2023-03-26T01:04:31.622Z,48.20
2023-03-26T01:07:04.017Z,44.20
2023-03-26T01:09:36.889Z,47.80
2023-03-26T01:12:09.937Z,46.53
2023-03-26T01:14:39.881Z,49.87
2023-03-26T01:17:09.455Z,39.00
2023-03-26T01:19:51.070Z,52.60
2023-03-26T01:22:22.095Z,55.93
2023-03-26T01:24:56.255Z,37.23
2023-03-26T01:27:38.926Z,54.87
2023-03-26T01:30:17.448Z,49.70
2023-03-26T01:33:04.463Z,42.20
2023-03-26T01:35:46.900Z,34.43
2023-03-26T01:38:28.377Z,46.73
2023-03-26T01:41:05.025Z,44.07
2023-03-26T01:43:40.836Z,39.77
2023-03-26T01:46:12.916Z,50.80
2023-03-26T01:48:44.351Z,40.73
2023-03-26T01:51:15.559Z,32.10
2023-03-26T01:53:48.722Z,45.43
2023-03-26T01:56:26.963Z,53.13
2023-03-26T01:59:26.453Z,55.17
2023-03-26T02:02:05.003Z,45.77
2023-03-26T02:04:42.839Z,39.70
2023-03-26T02:07:21.020Z,36.53
2023-03-26T02:09:55.446Z,35.33
2023-03-26T02:12:26.645Z,58.93
2023-03-26T02:14:55.384Z,57.50
2023-03-26T02:17:24.866Z,41.23
2023-03-26T02:19:54.556Z,58.00
2023-03-26T02:22:29.817Z,46.03
2023-03-26T02:24:59.581Z,51.57
2023-03-26T02:27:29.336Z,47.83
2023-03-26T02:29:57.887Z,36.30
2023-03-26T02:32:28.779Z,40.03
2023-03-26T02:34:57.716Z,33.23
2023-03-26T02:37:26.377Z,47.80
2023-03-26T02:40:06.320Z,46.67
2023-03-26T02:42:36.150Z,52.90
2023-03-26T02:45:05.679Z,40.63
2023-03-26T02:47:52.636Z,45.47
2023-03-26T02:50:50.394Z,42.30
2023-03-26T02:53:41.369Z,47.43
2023-03-26T02:56:25.465Z,43.60
2023-03-26T02:59:18.973Z,53.73
2023-03-26T03:01:52.088Z,57.50
2023-03-26T03:04:21.916Z,41.43
2023-03-26T03:06:57.823Z,39.70
2023-03-26T03:09:27.713Z,38.83
2023-03-26T03:12:21.765Z,37.87
2023-03-26T03:14:51.535Z,41.30
2023-03-26T03:17:20.910Z,45.13
2023-03-26T03:19:49.524Z,38.80
2023-03-26T03:22:18.044Z,33.17
2023-03-26T03:24:48.697Z,39.43
2023-03-26T03:27:18.008Z,30.03
2023-03-26T03:29:55.862Z,37.67
2023-03-26T03:32:42.752Z,33.37
2023-03-26T03:35:12.017Z,27.97
2023-03-26T03:37:42.335Z,39.73
2023-03-26T03:40:12.589Z,38.57
2023-03-26T03:42:41.500Z,35.13
2023-03-26T03:45:14.074Z,42.53
2023-03-26T03:48:01.227Z,35.13
2023-03-26T03:50:38.621Z,38.03
2023-03-26T03:53:29.163Z,33.27
2023-03-26T03:56:02.092Z,32.47
2023-03-26T03:58:51.609Z,38.47
2023-03-26T04:01:30.963Z,47.50
2023-03-26T04:04:05.045Z,38.77
2023-03-26T04:06:52.187Z,42.60
2023-03-26T04:09:21.445Z,33.30
2023-03-26T04:11:52.043Z,39.00
2023-03-26T04:14:40.692Z,28.67
2023-03-26T04:17:31.464Z,33.80
2023-03-26T04:20:07.277Z,23.70
2023-03-26T04:22:36.580Z,29.00
2023-03-26T04:25:09.323Z,34.67
2023-03-26T04:28:01.424Z,41.17
2023-03-26T04:31:04.226Z,34.33
2023-03-26T04:33:40.211Z,37.13
2023-03-26T04:36:11.643Z,28.43
2023-03-26T04:38:44.717Z,35.27
2023-03-26T04:41:15.579Z,27.70
2023-03-26T04:44:02.075Z,33.53
2023-03-26T04:46:50.198Z,37.43
2023-03-26T04:49:29.273Z,41.60
2023-03-26T04:51:57.879Z,32.57
2023-03-26T04:55:02.160Z,31.73
2023-03-26T04:57:37.118Z,29.53
2023-03-26T05:00:16.451Z,36.77
2023-03-26T05:02:50.437Z,31.63
2023-03-26T05:05:21.539Z,34.40
2023-03-26T05:07:51.513Z,28.10
2023-03-26T05:10:22.134Z,25.97
2023-03-26T05:13:04.794Z,34.73
2023-03-26T05:15:37.047Z,27.90
2023-03-26T05:18:17.911Z,33.23
2023-03-26T05:20:53.323Z,30.70
2023-03-26T05:23:22.032Z,24.47
2023-03-26T05:26:12.745Z,32.03
2023-03-26T05:28:41.976Z,36.77
2023-03-26T05:31:22.304Z,32.37
2023-03-26T05:33:55.071Z,27.40
2023-03-26T05:36:26.031Z,30.80
2023-03-26T05:39:05.973Z,24.87
2023-03-26T05:42:07.859Z,27.30
2023-03-26T05:44:56.542Z,26.70
2023-03-26T05:47:29.103Z,38.57
2023-03-26T05:49:58.959Z,36.10
2023-03-26T05:52:29.374Z,27.87
2023-03-26T05:55:30.005Z,35.43
2023-03-26T05:58:17.547Z,31.77
2023-03-26T06:00:59.516Z,27.10
2023-03-26T06:03:40.189Z,24.27
2023-03-26T06:06:18.713Z,19.73
2023-03-26T06:09:02.061Z,22.13
2023-03-26T06:11:32.935Z,29.50
2023-03-26T06:14:02.785Z,29.97
2023-03-26T06:16:31.918Z,29.30
2023-03-26T06:19:13.424Z,31.27
2023-03-26T06:21:51.312Z,23.67
2023-03-26T06:24:24.892Z,24.30
2023-03-26T06:27:14.228Z,26.33
2023-03-26T06:30:00.946Z,22.53
2023-03-26T06:32:56.055Z,40.40
2023-03-26T06:35:29.981Z,34.40
2023-03-26T06:37:58.837Z,36.40
2023-03-26T06:40:29.017Z,29.80
2023-03-26T06:43:11.091Z,32.07
2023-03-26T06:46:02.968Z,24.80
2023-03-26T06:48:49.502Z,28.37
2023-03-26T06:51:30.248Z,24.93
2023-03-26T06:54:17.527Z,30.53
2023-03-26T06:57:06.234Z,27.67
2023-03-26T06:59:53.400Z,31.83
2023-03-26T07:02:40.445Z,34.90
2023-03-26T07:05:27.848Z,25.83
2023-03-26T07:08:14.789Z,30.30
2023-03-26T07:11:02.053Z,34.20
2023-03-26T07:13:38.523Z,40.83
2023-03-26T07:16:29.837Z,32.83
2023-03-26T07:19:34.191Z,24.70
2023-03-26T07:22:03.936Z,24.80
2023-03-26T07:24:52.276Z,34.17
2023-03-26T07:27:55.106Z,20.70
2023-03-26T07:31:12.695Z,25.07
2023-03-26T07:33:58.789Z,33.10
2023-03-26T07:36:48.957Z,27.57
2023-03-26T07:39:53.452Z,33.33
2023-03-26T07:42:47.177Z,35.13
2023-03-26T07:45:51.423Z,36.80
2023-03-26T07:48:33.903Z,31.47
2023-03-26T07:51:27.960Z,33.20
2023-03-26T07:54:29.572Z,35.90
2023-03-26T07:57:02.873Z,29.73
2023-03-26T07:59:41.508Z,33.80
2023-03-26T08:02:50.518Z,31.70
2023-03-26T08:05:58.538Z,28.70
2023-03-26T08:08:47.983Z,32.40
2023-03-26T08:11:54.413Z,29.33
2023-03-26T08:14:40.955Z,33.60
2023-03-26T08:17:14.357Z,27.03
2023-03-26T08:19:58.159Z,27.10
2023-03-26T08:22:34.377Z,28.43
2023-03-26T08:25:20.959Z,30.90
2023-03-26T08:28:04.714Z,22.37
2023-03-26T08:30:33.456Z,21.57
2023-03-26T08:33:14.048Z,28.70
2023-03-26T08:35:42.869Z,26.73
2023-03-26T08:38:13.970Z,26.60
2023-03-26T08:41:25.568Z,27.63
2023-03-26T08:45:11.990Z,23.13
2023-03-26T08:48:59.159Z,23.10
2023-03-26T08:52:17.005Z,18.30
2023-03-26T08:55:20.715Z,25.13
2023-03-26T08:58:24.174Z,23.33
2023-03-26T09:01:24.435Z,21.63
2023-03-26T09:04:42.510Z,23.40
2023-03-26T09:07:56.498Z,16.70
2023-03-26T09:10:56.953Z,23.33
2023-03-26T09:14:18.424Z,22.13
2023-03-26T09:17:38.696Z,17.33
2023-03-26T09:21:11.652Z,23.30
2023-03-26T09:24:25.469Z,22.97
2023-03-26T09:27:11.076Z,21.57
2023-03-26T09:30:45.579Z,19.07
2023-03-26T09:33:56.566Z,24.20
2023-03-26T09:36:59.980Z,22.87
2023-03-26T09:39:40.235Z,19.60
2023-03-26T09:42:25.117Z,17.30
2023-03-26T09:45:28.101Z,22.03
2023-03-26T09:48:47.531Z,18.07
2023-03-26T09:51:45.841Z,15.63
2023-03-26T09:54:46.501Z,19.43
2023-03-26T09:57:35.309Z,14.97
2023-03-26T10:00:25.634Z,16.83
2023-03-26T10:03:31.652Z,18.40
2023-03-26T10:06:19.976Z,18.40
2023-03-26T10:09:06.281Z,20.63
2023-03-26T10:12:05.976Z,12.57
2023-03-26T10:14:41.698Z,11.60
2023-03-26T10:17:35.793Z,13.73
2023-03-26T10:20:28.737Z,12.80
2023-03-26T10:23:13.071Z,9.73
2023-03-26T10:26:04.380Z,10.83
2023-03-26T10:28:56.855Z,12.77
2023-03-26T10:31:48.683Z,9.93
2023-03-26T10:34:42.646Z,13.00
2023-03-26T10:37:19.918Z,16.63
2023-03-26T10:40:09.885Z,13.83
2023-03-26T10:43:33.391Z,8.37
2023-03-26T10:46:37.576Z,10.97
2023-03-26T10:49:39.863Z,10.33
2023-03-26T10:52:12.032Z,8.30
2023-03-26T10:54:54.844Z,9.30
2023-03-26T10:57:40.203Z,10.53
2023-03-26T11:00:23.346Z,15.07
2023-03-26T11:03:22.101Z,8.37
2023-03-26T11:06:02.762Z,3.80
2023-03-26T11:08:38.500Z,7.20
2023-03-26T11:11:21.500Z,4.80
2023-03-26T11:14:02.023Z,3.30
2023-03-26T11:16:44.300Z,8.07
2023-03-26T11:19:22.964Z,6.40
2023-03-26T11:22:02.560Z,6.57
2023-03-26T11:25:36.552Z,7.07
2023-03-26T11:28:20.230Z,8.50
2023-03-26T11:30:56.514Z,7.67
2023-03-26T11:33:32.889Z,10.27
2023-03-26T11:36:07.518Z,4.07
2023-03-26T11:38:43.855Z,7.80
2023-03-26T11:41:23.590Z,6.10
2023-03-26T11:44:22.522Z,5.43
2023-03-26T11:46:59.000Z,6.80
2023-03-26T11:49:29.457Z,6.73
2023-03-26T11:51:59.256Z,5.03
2023-03-26T11:54:29.104Z,7.03
2023-03-26T11:57:07.352Z,5.37
2023-03-26T11:59:53.078Z,6.90
2023-03-26T12:02:32.489Z,7.67
2023-03-26T12:05:29.485Z,6.90
2023-03-26T12:07:59.861Z,6.43
2023-03-26T12:10:34.880Z,5.77
2023-03-26T12:13:17.813Z,6.07
2023-03-26T12:15:46.346Z,5.73
2023-03-26T12:18:26.949Z,6.60
2023-03-26T12:21:08.952Z,7.53
2023-03-26T12:23:57.235Z,4.33
2023-03-26T12:26:41.437Z,5.07
2023-03-26T12:29:13.207Z,5.13
2023-03-26T12:31:55.803Z,4.40
2023-03-26T12:34:30.786Z,5.77
2023-03-26T12:37:01.165Z,7.17
2023-03-26T12:40:07.822Z,6.60
2023-03-26T12:44:46.699Z,4.77
2023-03-26T12:45:29.892Z,6.47
2023-03-26T12:48:03.966Z,8.50
2023-03-26T12:50:55.250Z,6.90
2023-03-26T12:54:06.325Z,6.83
2023-03-26T12:56:44.437Z,6.23
2023-03-26T12:59:43.700Z,10.03
2023-03-26T13:02:49.701Z,14.27
2023-03-26T13:05:44.472Z,16.37
2023-03-26T13:08:46.563Z,16.70
2023-03-26T13:11:25.819Z,23.83
2023-03-26T13:14:10.629Z,19.50
2023-03-26T13:16:47.869Z,19.97
2023-03-26T13:19:22.241Z,33.23
2023-03-26T13:22:05.743Z,16.40
2023-03-26T13:24:50.122Z,18.17
2023-03-26T13:27:29.983Z,18.07
2023-03-26T13:30:12.839Z,19.03
2023-03-26T13:33:01.426Z,19.57
2023-03-26T13:35:38.086Z,15.00
2023-03-26T13:38:15.388Z,17.77
2023-03-26T13:40:57.842Z,13.23
2023-03-26T13:43:53.937Z,13.40
2023-03-26T13:46:34.952Z,18.83
2023-03-26T13:49:12.915Z,17.33
2023-03-26T13:51:45.862Z,21.00
2023-03-26T13:54:22.931Z,17.53
2023-03-26T13:56:58.536Z,12.47
2023-03-26T13:59:32.886Z,12.70
2023-03-26T14:02:10.881Z,11.07
2023-03-26T14:04:46.464Z,14.53
2023-03-26T14:07:23.481Z,17.73
2023-03-26T14:09:57.828Z,18.03
2023-03-26T14:12:44.658Z,13.67
2023-03-26T14:15:18.660Z,15.53
2023-03-26T14:17:55.420Z,13.90
2023-03-26T14:21:39.742Z,10.80
2023-03-26T14:24:50.220Z,24.10
2023-03-26T14:27:39.435Z,20.73
2023-03-26T14:30:56.637Z,20.80
2023-03-26T14:34:04.848Z,21.53
2023-03-26T14:37:11.086Z,21.10
2023-03-26T14:40:15.130Z,14.00
2023-03-26T14:42:55.922Z,22.90
2023-03-26T14:45:53.610Z,17.93
2023-03-26T14:49:18.835Z,12.27
2023-03-26T14:52:02.555Z,14.43
2023-03-26T14:54:36.329Z,27.80
2023-03-26T14:57:57.828Z,11.20
2023-03-26T15:01:24.613Z,12.60
2023-03-26T15:04:51.907Z,11.40
2023-03-26T15:08:09.352Z,9.60
2023-03-26T15:11:20.540Z,13.13
2023-03-26T15:14:02.976Z,8.87
2023-03-26T15:17:34.892Z,15.53
2023-03-26T15:21:00.305Z,9.30
2023-03-26T15:24:19.198Z,7.67
2023-03-26T15:27:29.252Z,9.30
2023-03-26T15:30:49.361Z,8.23
2023-03-26T15:34:01.081Z,9.10
2023-03-26T15:37:12.758Z,7.10
2023-03-26T15:40:09.744Z,8.97
2023-03-26T15:43:01.473Z,8.30
2023-03-26T15:45:38.960Z,6.67
2023-03-26T15:48:37.504Z,11.40
2023-03-26T15:51:29.753Z,8.87
2023-03-26T15:54:10.278Z,8.80
2023-03-26T15:57:17.514Z,9.70
2023-03-26T16:00:12.516Z,9.70
2023-03-26T16:02:54.007Z,12.37
2023-03-26T16:05:39.361Z,8.10
2023-03-26T16:08:22.265Z,10.27
2023-03-26T16:10:56.142Z,10.37
2023-03-26T16:13:37.824Z,8.27
2023-03-26T16:16:50.747Z,9.53
2023-03-26T16:19:52.091Z,8.50
2023-03-26T16:22:57.341Z,15.47
2023-03-26T16:25:32.776Z,9.33
2023-03-26T16:28:31.400Z,9.23
2023-03-26T16:31:37.749Z,6.37
2023-03-26T16:34:46.595Z,11.77
2023-03-26T16:37:43.746Z,9.03
2023-03-26T16:40:36.196Z,8.17
2023-03-26T16:43:44.843Z,12.87
2023-03-26T16:46:29.962Z,15.87
2023-03-26T16:49:05.478Z,10.97
2023-03-26T16:52:00.118Z,14.93
2023-03-26T16:54:41.030Z,7.57
2023-03-26T16:57:27.121Z,12.40
2023-03-26T17:00:43.989Z,10.80
2023-03-26T17:03:45.113Z,13.03
2023-03-26T17:06:53.401Z,14.23
2023-03-26T17:09:33.981Z,10.47
2023-03-26T17:12:14.387Z,13.17
2023-03-26T17:15:18.548Z,9.83
2023-03-26T17:18:14.610Z,10.70
2023-03-26T17:20:52.761Z,11.43
2023-03-26T17:23:39.751Z,9.00
2023-03-26T17:26:23.227Z,11.00
2023-03-26T17:29:21.770Z,10.57
2023-03-26T17:32:00.485Z,8.37
2023-03-26T17:35:00.719Z,8.63
2023-03-26T17:37:50.676Z,9.00
2023-03-26T17:40:52.113Z,10.40
2023-03-26T17:43:44.806Z,8.30
2023-03-26T17:46:33.744Z,9.97
2023-03-26T17:49:09.539Z,11.67
2023-03-26T17:51:48.788Z,9.27
2023-03-26T17:54:25.690Z,9.93
2023-03-26T17:56:56.334Z,11.07
2023-03-26T17:59:28.297Z,15.33
2023-03-26T18:02:00.972Z,9.43
2023-03-26T18:04:37.364Z,8.90
2023-03-26T18:07:54.010Z,8.17
2023-03-26T18:10:50.010Z,13.20
2023-03-26T18:14:25.411Z,7.60
2023-03-26T18:16:57.660Z,14.93
2023-03-26T18:19:26.592Z,9.33
2023-03-26T18:21:58.066Z,5.83
2023-03-26T18:24:31.779Z,8.80
2023-03-26T18:27:06.148Z,5.93
2023-03-26T18:29:36.248Z,10.80
2023-03-26T18:32:22.159Z,13.77
2023-03-26T18:34:57.010Z,5.83
2023-03-26T18:37:29.222Z,10.27
2023-03-26T18:40:02.529Z,31.13
2023-03-26T18:42:33.855Z,6.67
2023-03-26T18:45:10.826Z,9.33
2023-03-26T18:47:39.256Z,6.40
2023-03-26T18:50:15.922Z,7.63
2023-03-26T18:52:45.856Z,12.63
2023-03-26T18:55:16.744Z,5.47
2023-03-26T18:57:45.787Z,9.90
2023-03-26T19:00:21.804Z,3.93
2023-03-26T19:02:55.757Z,9.77
2023-03-26T19:05:24.423Z,11.80
2023-03-26T19:07:53.095Z,14.53
2023-03-26T19:10:25.279Z,7.70
2023-03-26T19:12:59.067Z,9.60
2023-03-26T19:15:31.304Z,10.73
2023-03-26T19:18:07.482Z,6.53
2023-03-26T19:20:43.371Z,7.50
2023-03-26T19:23:16.506Z,7.43
2023-03-26T19:25:48.961Z,7.43
2023-03-26T19:28:23.567Z,14.27
2023-03-26T19:30:57.991Z,7.20
2023-03-26T19:33:34.874Z,12.03
2023-03-26T19:36:06.720Z,10.43
2023-03-26T19:38:45.944Z,7.80
2023-03-26T19:41:23.325Z,20.23
2023-03-26T19:43:55.925Z,8.47
2023-03-26T19:46:25.556Z,7.77
2023-03-26T19:48:56.967Z,10.43
2023-03-26T19:51:34.229Z,14.03
2023-03-26T19:54:13.939Z,7.93
2023-03-26T19:56:43.893Z,15.07
2023-03-26T19:59:13.071Z,9.60
2023-03-26T20:01:41.698Z,12.03
2023-03-26T20:04:14.869Z,13.93
2023-03-26T20:06:44.301Z,11.67
2023-03-26T20:09:13.942Z,8.80
2023-03-26T20:11:44.035Z,5.80
2023-03-26T20:14:15.857Z,14.87
2023-03-26T20:16:45.814Z,4.67
2023-03-26T20:19:15.484Z,11.03
2023-03-26T20:21:46.092Z,14.50
2023-03-26T20:24:18.055Z,11.10
2023-03-26T20:26:48.445Z,12.17
2023-03-26T20:29:17.604Z,9.33
2023-03-26T20:31:46.379Z,9.90
2023-03-26T20:34:19.863Z,9.40
2023-03-26T20:36:54.376Z,12.10
2023-03-26T20:39:23.787Z,12.83
2023-03-26T20:41:56.232Z,7.53
2023-03-26T20:44:27.012Z,8.53
2023-03-26T20:46:56.560Z,17.13
2023-03-26T20:49:25.323Z,18.93
2023-03-26T20:51:53.946Z,9.23
2023-03-26T20:54:25.498Z,6.17
2023-03-26T20:56:55.729Z,13.13
2023-03-26T20:59:27.810Z,11.40
2023-03-26T21:01:59.216Z,18.47
2023-03-26T21:04:29.045Z,7.37
2023-03-26T21:07:07.213Z,6.93
2023-03-26T21:09:40.661Z,6.20
2023-03-26T21:12:22.967Z,10.67
2023-03-26T21:14:52.357Z,9.27
2023-03-26T21:17:25.500Z,9.20
2023-03-26T21:19:54.738Z,7.77
2023-03-26T21:22:36.593Z,12.00
2023-03-26T21:25:18.578Z,9.27
2023-03-26T21:28:05.963Z,18.37
2023-03-26T21:30:35.692Z,10.97
2023-03-26T21:33:05.353Z,11.30
2023-03-26T21:35:35.532Z,12.50
2023-03-26T21:38:06.495Z,8.20
2023-03-26T21:40:35.994Z,8.63
2023-03-26T21:43:06.972Z,10.83
2023-03-26T21:45:36.682Z,5.90
2023-03-26T21:48:06.272Z,11.83
2023-03-26T21:50:35.982Z,6.63
2023-03-26T21:53:05.191Z,11.23
2023-03-26T21:55:44.593Z,9.30
2023-03-26T21:58:32.618Z,10.57
2023-03-26T22:01:19.854Z,7.33
2023-03-26T22:04:04.752Z,6.40
2023-03-26T22:06:43.113Z,8.00
2023-03-26T22:09:15.019Z,6.93
2023-03-26T22:11:45.248Z,6.87
2023-03-26T22:14:15.054Z,8.33
2023-03-26T22:16:43.814Z,7.67
2023-03-26T22:19:13.721Z,4.60
2023-03-26T22:21:42.243Z,6.13
2023-03-26T22:24:10.666Z,9.53
2023-03-26T22:26:38.982Z,6.80
2023-03-26T22:29:08.213Z,12.50
2023-03-26T22:31:39.229Z,22.43
2023-03-26T22:34:07.942Z,9.47
2023-03-26T22:36:37.945Z,9.53
2023-03-26T22:39:08.277Z,11.87
2023-03-26T22:41:37.182Z,11.10
2023-03-26T22:44:19.121Z,13.93
2023-03-26T22:46:51.582Z,7.20
2023-03-26T22:49:20.279Z,6.43
2023-03-26T22:51:50.169Z,5.80
2023-03-26T22:54:21.490Z,11.30
2023-03-26T22:56:52.256Z,11.60
2023-03-26T22:59:20.697Z,8.90
2023-03-26T23:01:50.490Z,17.10
2023-03-26T23:04:31.502Z,10.87
2023-03-26T23:07:00.710Z,11.17
2023-03-26T23:09:29.548Z,15.00
2023-03-26T23:11:58.211Z,13.73
2023-03-26T23:14:28.600Z,14.73
2023-03-26T23:16:58.448Z,10.70
2023-03-26T23:19:26.843Z,9.13
2023-03-26T23:21:55.416Z,6.50
2023-03-26T23:24:26.577Z,6.33
2023-03-26T23:26:55.324Z,9.27
2023-03-26T23:29:23.806Z,11.53
2023-03-26T23:31:54.642Z,11.10
2023-03-26T23:34:25.149Z,8.50
2023-03-26T23:36:53.795Z,10.73
2023-03-26T23:39:22.271Z,8.80
2023-03-26T23:41:50.608Z,12.20
2023-03-26T23:44:19.457Z,6.30
2023-03-26T23:46:48.564Z,12.43
2023-03-26T23:49:16.968Z,7.70
2023-03-26T23:51:51.345Z,5.70
2023-03-26T23:54:21.552Z,9.13
2023-03-26T23:56:50.173Z,7.63
2023-03-26T23:59:19.095Z,9.33
